< < Back
Terminal Aerodrome Forecast


Current Version              Previous Versions:   1  2  3  4  5  6  7  8  9  

Terminal Aerodrome Forecast

206
FTUS42 KGSP 071120
TAFGSP
TAF
KGSP 071120Z 0712/0812 23003KT 6SM BR FEW250
     FM071300 25004KT P6SM FEW045
     FM071800 21008KT P6SM FEW060
     FM080300 19003KT P6SM FEW250=

Latest METAR

674
SAUS70 KWBC 071900 RRE
MTRGSP
METAR KGSP 071853Z 23006KT 10SM FEW055 32/18 A3011 RMK AO2 SLP182
T03220183


USA.gov is the U.S. government's official web portal to all federal, state and local government web resources and services.